首页
METAR-TAF:

METAR-TAF

机场 :

丹維爾, 弗吉尼亚州, 美国

纬度: 36-34-22N, 经度: 079-20-10W, 海拔: 174米

当前天气观测

该预报发布于1小时和0分钟前的15:53 UTC
风速3节,风向多变
温度 23°C
湿度 47%
气压 1018 hPa
能見度: 16.1公里
天空无云

METAR: KDAN 231553Z AUTO VRB03KT 10SM CLR 23/11 A3007 RMK AO2 SLP175 T02330106

时间: 12:53 (16:53 UTC)

预报

该预报发布于5小时和29分钟前的11:24 UTC
预报有效从23日的 12点(UTC)到 24日的 12点(UTC)
风速节,风向
能見度: 10公里
天空无云
从 23日的 1700点(UTC)
风速5节,风向西南
能見度: 10公里
少量云层高于25000英尺
从 24日的 0200点(UTC)
风速3节,风向多变
能見度: 10公里
少量云层高于20000英尺

TAF: KDAN 231124Z 2312/2412 00000KT P6SM SKC FM231700 23005KT P6SM FEW250 FM240200 VRB03KT P6SM FEW200

超过4000个机场的气象观测和天气预报(METAR&TAF报告)。

可查询的气象台以黄色和红色小点在地图上表示。

将鼠标移到小点上方,可查看气象台名称。

然后点击查看天气观测和预报。

如需切换地图:点击带黑十字的绿色按钮放大地图;点击带横线的绿色按钮缩小地图;或者点击绿色箭头查看邻近地区的地图。


METAR-TAF: